sensor_id;sensor_type;location;lat;lon;timestamp;pressure;altitude;pressure_sealevel;temperature;humidity
83492;BME280;73661;56.120;12.302;2023-12-29T00:00:41;99590.69;;;8.17;81.04
83492;BME280;73661;56.120;12.302;2023-12-29T00:03:07;99583.72;;;8.27;80.82
83492;BME280;73661;56.120;12.302;2023-12-29T00:05:32;99570.66;;;8.54;79.55
83492;BME280;73661;56.120;12.302;2023-12-29T00:07:58;99568.03;;;8.59;79.91
83492;BME280;73661;56.120;12.302;2023-12-29T00:10:24;99561.13;;;8.52;80.54
83492;BME280;73661;56.120;12.302;2023-12-29T00:12:49;99551.56;;;8.55;80.93
83492;BME280;73661;56.120;12.302;2023-12-29T00:15:18;99559.31;;;8.69;80.53
83492;BME280;73661;56.120;12.302;2023-12-29T00:17:44;99555.03;;;8.63;80.51
83492;BME280;73661;56.120;12.302;2023-12-29T00:20:10;99572.41;;;8.51;81.24
83492;BME280;73661;56.120;12.302;2023-12-29T00:22:36;99567.13;;;8.70;80.72
83492;BME280;73661;56.120;12.302;2023-12-29T00:25:02;99580.13;;;8.69;80.38
83492;BME280;73661;56.120;12.302;2023-12-29T00:27:28;99562.75;;;8.77;80.34
83492;BME280;73661;56.120;12.302;2023-12-29T00:29:54;99573.94;;;8.94;79.37
83492;BME280;73661;56.120;12.302;2023-12-29T00:32:20;99574.88;;;8.80;79.08
83492;BME280;73661;56.120;12.302;2023-12-29T00:34:46;99556.59;;;8.92;79.32
83492;BME280;73661;56.120;12.302;2023-12-29T00:37:12;99558.41;;;8.79;79.48
83492;BME280;73661;56.120;12.302;2023-12-29T00:39:37;99561.81;;;8.90;78.83
83492;BME280;73661;56.120;12.302;2023-12-29T00:42:06;99549.72;;;8.80;79.62
83492;BME280;73661;56.120;12.302;2023-12-29T00:44:33;99557.28;;;9.21;78.60
83492;BME280;73661;56.120;12.302;2023-12-29T00:46:59;99556.41;;;9.21;78.24
83492;BME280;73661;56.120;12.302;2023-12-29T00:49:26;99573.94;;;8.94;78.25
83492;BME280;73661;56.120;12.302;2023-12-29T00:51:52;99583.50;;;8.92;79.40
83492;BME280;73661;56.120;12.302;2023-12-29T00:54:18;99579.97;;;8.99;79.64
83492;BME280;73661;56.120;12.302;2023-12-29T00:56:51;99562.72;;;8.80;79.85
83492;BME280;73661;56.120;12.302;2023-12-29T00:59:18;99555.66;;;9.00;78.82
83492;BME280;73661;56.120;12.302;2023-12-29T01:01:44;99545.16;;;9.16;78.97
83492;BME280;73661;56.120;12.302;2023-12-29T01:04:10;99551.28;;;9.07;78.69
83492;BME280;73661;56.120;12.302;2023-12-29T01:06:36;99542.75;;;8.85;79.04
83492;BME280;73661;56.120;12.302;2023-12-29T01:09:01;99535.00;;;8.79;79.56
83492;BME280;73661;56.120;12.302;2023-12-29T01:11:27;99540.03;;;9.02;79.17
83492;BME280;73661;56.120;12.302;2023-12-29T01:13:53;99546.22;;;8.86;79.68
83492;BME280;73661;56.120;12.302;2023-12-29T01:16:19;99543.75;;;8.64;80.11
83492;BME280;73661;56.120;12.302;2023-12-29T01:18:44;99515.06;;;8.69;79.93
83492;BME280;73661;56.120;12.302;2023-12-29T01:21:10;99547.31;;;8.28;81.42
83492;BME280;73661;56.120;12.302;2023-12-29T01:23:36;99539.50;;;8.39;81.70
83492;BME280;73661;56.120;12.302;2023-12-29T01:26:03;99536.06;;;8.29;82.00
83492;BME280;73661;56.120;12.302;2023-12-29T01:28:28;99553.34;;;8.45;81.16
83492;BME280;73661;56.120;12.302;2023-12-29T01:30:54;99553.28;;;8.61;80.55
83492;BME280;73661;56.120;12.302;2023-12-29T01:33:20;99546.31;;;8.66;80.44
83492;BME280;73661;56.120;12.302;2023-12-29T01:35:47;99551.59;;;8.48;80.85
83492;BME280;73661;56.120;12.302;2023-12-29T01:38:12;99550.78;;;8.39;81.11
83492;BME280;73661;56.120;12.302;2023-12-29T01:40:45;99542.06;;;8.50;81.06
83492;BME280;73661;56.120;12.302;2023-12-29T01:43:11;99548.16;;;8.41;80.75
83492;BME280;73661;56.120;12.302;2023-12-29T01:45:37;99546.47;;;8.23;80.91
83492;BME280;73661;56.120;12.302;2023-12-29T01:48:03;99544.69;;;8.28;80.02
83492;BME280;73661;56.120;12.302;2023-12-29T01:50:29;99546.47;;;8.14;80.70
83492;BME280;73661;56.120;12.302;2023-12-29T01:52:55;99534.34;;;8.14;80.12
83492;BME280;73661;56.120;12.302;2023-12-29T01:55:24;99536.06;;;8.25;80.13
83492;BME280;73661;56.120;12.302;2023-12-29T01:57:52;99532.66;;;8.06;80.01
83492;BME280;73661;56.120;12.302;2023-12-29T02:00:18;99530.06;;;8.00;80.28
83492;BME280;73661;56.120;12.302;2023-12-29T02:02:46;99530.06;;;8.01;80.47
83492;BME280;73661;56.120;12.302;2023-12-29T02:05:14;99528.31;;;8.05;80.47
83492;BME280;73661;56.120;12.302;2023-12-29T02:07:43;99522.22;;;8.09;79.38
83492;BME280;73661;56.120;12.302;2023-12-29T02:10:09;99527.44;;;8.01;79.34
83492;BME280;73661;56.120;12.302;2023-12-29T02:12:41;99528.34;;;7.92;80.53
83492;BME280;73661;56.120;12.302;2023-12-29T02:15:07;99515.38;;;7.86;80.11
83492;BME280;73661;56.120;12.302;2023-12-29T02:18:05;99520.56;;;7.88;79.50
83492;BME280;73661;56.120;12.302;2023-12-29T02:20:32;99512.78;;;7.86;80.35
83492;BME280;73661;56.120;12.302;2023-12-29T02:22:58;99520.47;;;8.22;78.93
83492;BME280;73661;56.120;12.302;2023-12-29T02:25:26;99515.34;;;8.00;79.21
83492;BME280;73661;56.120;12.302;2023-12-29T02:30:41;99516.16;;;8.13;78.88
83492;BME280;73661;56.120;12.302;2023-12-29T02:33:14;99507.53;;;8.05;79.08
83492;BME280;73661;56.120;12.302;2023-12-29T02:35:43;99517.03;;;8.07;78.92
83492;BME280;73661;56.120;12.302;2023-12-29T02:38:11;99507.53;;;8.02;78.93
83492;BME280;73661;56.120;12.302;2023-12-29T02:40:38;99509.22;;;8.09;78.58
83492;BME280;73661;56.120;12.302;2023-12-29T02:43:04;99508.41;;;7.95;78.79
83492;BME280;73661;56.120;12.302;2023-12-29T02:45:30;99504.13;;;7.81;79.63
83492;BME280;73661;56.120;12.302;2023-12-29T02:47:55;99505.88;;;7.82;78.78
83492;BME280;73661;56.120;12.302;2023-12-29T02:50:21;99504.09;;;7.95;79.12
83492;BME280;73661;56.120;12.302;2023-12-29T02:52:47;99501.53;;;7.83;79.56
83492;BME280;73661;56.120;12.302;2023-12-29T02:55:12;99502.31;;;8.11;78.07
83492;BME280;73661;56.120;12.302;2023-12-29T02:57:38;99491.91;;;8.08;77.97
83492;BME280;73661;56.120;12.302;2023-12-29T03:00:05;99491.97;;;7.92;78.39
83492;BME280;73661;56.120;12.302;2023-12-29T03:02:31;99494.59;;;7.86;78.26
83492;BME280;73661;56.120;12.302;2023-12-29T03:04:58;99495.47;;;7.85;78.21
83492;BME280;73661;56.120;12.302;2023-12-29T03:07:24;99494.56;;;7.92;77.45
83492;BME280;73661;56.120;12.302;2023-12-29T03:09:49;99495.47;;;7.82;77.75
83492;BME280;73661;56.120;12.302;2023-12-29T03:12:15;99488.56;;;7.72;78.05
83492;BME280;73661;56.120;12.302;2023-12-29T03:14:41;99492.03;;;7.70;79.08
83492;BME280;73661;56.120;12.302;2023-12-29T03:17:07;99489.44;;;7.63;79.08
83492;BME280;73661;56.120;12.302;2023-12-29T03:19:32;99482.47;;;7.81;78.76
83492;BME280;73661;56.120;12.302;2023-12-29T03:21:58;99479.00;;;7.80;78.61
83492;BME280;73661;56.120;12.302;2023-12-29T03:24:24;99474.69;;;7.82;78.58
83492;BME280;73661;56.120;12.302;2023-12-29T03:26:50;99481.59;;;7.86;78.82
83492;BME280;73661;56.120;12.302;2023-12-29T03:29:15;99472.88;;;8.06;78.85
83492;BME280;73661;56.120;12.302;2023-12-29T03:31:41;99463.34;;;8.02;78.78
83492;BME280;73661;56.120;12.302;2023-12-29T03:34:07;99472.88;;;8.06;78.88
83492;BME280;73661;56.120;12.302;2023-12-29T03:36:33;99487.66;;;7.90;79.20
83492;BME280;73661;56.120;12.302;2023-12-29T03:38:59;99483.28;;;8.06;79.62
83492;BME280;73661;56.120;12.302;2023-12-29T03:41:24;99481.53;;;8.02;79.51
83492;BME280;73661;56.120;12.302;2023-12-29T03:43:50;99472.00;;;8.08;79.11
83492;BME280;73661;56.120;12.302;2023-12-29T03:46:18;99475.47;;;8.12;79.38
83492;BME280;73661;56.120;12.302;2023-12-29T03:48:43;99472.84;;;8.15;78.67
83492;BME280;73661;56.120;12.302;2023-12-29T03:51:09;99460.72;;;8.14;78.89
83492;BME280;73661;56.120;12.302;2023-12-29T03:53:35;99459.91;;;7.95;79.81
83492;BME280;73661;56.120;12.302;2023-12-29T03:56:05;99448.53;;;8.27;79.03
83492;BME280;73661;56.120;12.302;2023-12-29T03:58:30;99446.91;;;8.00;79.37
83492;BME280;73661;56.120;12.302;2023-12-29T04:00:56;99444.31;;;7.98;79.40
83492;BME280;73661;56.120;12.302;2023-12-29T04:03:22;99434.69;;;8.20;78.74
83492;BME280;73661;56.120;12.302;2023-12-29T04:05:47;99438.25;;;7.95;78.79
83492;BME280;73661;56.120;12.302;2023-12-29T04:08:13;99440.84;;;8.01;78.66
83492;BME280;73661;56.120;12.302;2023-12-29T04:10:39;99433.00;;;8.11;78.56
83492;BME280;73661;56.120;12.302;2023-12-29T04:13:04;99436.53;;;7.89;78.94
83492;BME280;73661;56.120;12.302;2023-12-29T04:15:30;99434.03;;;7.68;80.12
83492;BME280;73661;56.120;12.302;2023-12-29T04:17:56;99434.88;;;7.71;79.29
83492;BME280;73661;56.120;12.302;2023-12-29T04:20:22;99429.66;;;7.79;79.00
83492;BME280;73661;56.120;12.302;2023-12-29T04:22:48;99428.78;;;7.84;78.73
83492;BME280;73661;56.120;12.302;2023-12-29T04:25:13;99441.78;;;7.84;78.63
83492;BME280;73661;56.120;12.302;2023-12-29T04:27:40;99429.66;;;7.74;78.77
83492;BME280;73661;56.120;12.302;2023-12-29T04:30:06;99431.44;;;7.66;79.20
83492;BME280;73661;56.120;12.302;2023-12-29T04:32:32;99432.31;;;7.70;79.26
83492;BME280;73661;56.120;12.302;2023-12-29T04:34:58;99437.53;;;7.50;80.16
83492;BME280;73661;56.120;12.302;2023-12-29T04:37:24;99431.41;;;7.75;79.53
83492;BME280;73661;56.120;12.302;2023-12-29T04:39:49;99416.63;;;7.88;78.84
83492;BME280;73661;56.120;12.302;2023-12-29T04:42:15;99403.66;;;7.88;79.15
83492;BME280;73661;56.120;12.302;2023-12-29T04:44:43;99400.19;;;7.87;78.76
83492;BME280;73661;56.120;12.302;2023-12-29T04:47:09;99399.41;;;7.65;78.91
83492;BME280;73661;56.120;12.302;2023-12-29T04:49:35;99394.97;;;7.89;78.55
83492;BME280;73661;56.120;12.302;2023-12-29T04:52:01;99399.34;;;7.84;78.77
83492;BME280;73661;56.120;12.302;2023-12-29T04:54:27;99400.22;;;7.84;79.30
83492;BME280;73661;56.120;12.302;2023-12-29T04:56:53;99395.03;;;7.84;79.09
83492;BME280;73661;56.120;12.302;2023-12-29T04:59:19;99383.78;;;7.78;79.46
83492;BME280;73661;56.120;12.302;2023-12-29T05:01:44;99387.25;;;7.83;78.81
83492;BME280;73661;56.120;12.302;2023-12-29T05:04:10;99384.56;;;7.95;78.88
83492;BME280;73661;56.120;12.302;2023-12-29T05:06:36;99373.41;;;7.78;79.41
83492;BME280;73661;56.120;12.302;2023-12-29T05:09:02;99371.56;;;8.03;79.41
83492;BME280;73661;56.120;12.302;2023-12-29T05:11:28;99365.53;;;7.96;79.08
83492;BME280;73661;56.120;12.302;2023-12-29T05:13:53;99376.84;;;7.80;79.17
83492;BME280;73661;56.120;12.302;2023-12-29T05:16:19;99372.53;;;7.79;79.21
83492;BME280;73661;56.120;12.302;2023-12-29T05:18:45;99375.06;;;7.88;79.66
83492;BME280;73661;56.120;12.302;2023-12-29T05:21:18;99375.03;;;7.97;79.18
83492;BME280;73661;56.120;12.302;2023-12-29T05:23:45;99382.03;;;7.81;79.64
83492;BME280;73661;56.120;12.302;2023-12-29T05:26:11;99374.28;;;7.72;79.98
83492;BME280;73661;56.120;12.302;2023-12-29T05:28:37;99356.03;;;7.81;79.60
83492;BME280;73661;56.120;12.302;2023-12-29T05:31:03;99361.19;;;7.93;79.30
83492;BME280;73661;56.120;12.302;2023-12-29T05:33:33;99349.84;;;8.08;79.29
83492;BME280;73661;56.120;12.302;2023-12-29T05:36:05;99342.91;;;8.13;79.25
83492;BME280;73661;56.120;12.302;2023-12-29T05:38:33;99370.59;;;8.19;79.03
83492;BME280;73661;56.120;12.302;2023-12-29T05:40:59;99355.03;;;8.13;79.39
83492;BME280;73661;56.120;12.302;2023-12-29T05:43:28;99379.44;;;7.78;80.74
83492;BME280;73661;56.120;12.302;2023-12-29T05:45:53;99360.44;;;7.76;80.64
83492;BME280;73661;56.120;12.302;2023-12-29T05:48:19;99352.47;;;8.05;80.15
83492;BME280;73661;56.120;12.302;2023-12-29T05:50:45;99359.50;;;7.86;80.12
83492;BME280;73661;56.120;12.302;2023-12-29T05:53:10;99360.38;;;7.84;79.93
83492;BME280;73661;56.120;12.302;2023-12-29T05:55:36;99366.41;;;7.87;80.35
83492;BME280;73661;56.120;12.302;2023-12-29T05:58:02;99364.63;;;7.99;79.98
83492;BME280;73661;56.120;12.302;2023-12-29T06:00:28;99368.13;;;7.93;80.51
83492;BME280;73661;56.120;12.302;2023-12-29T06:02:53;99349.88;;;8.07;79.73
83492;BME280;73661;56.120;12.302;2023-12-29T06:05:19;99355.94;;;8.06;79.83
83492;BME280;73661;56.120;12.302;2023-12-29T06:07:45;99353.44;;;7.81;80.03
83492;BME280;73661;56.120;12.302;2023-12-29T06:10:11;99351.69;;;7.92;79.73
83492;BME280;73661;56.120;12.302;2023-12-29T06:12:37;99348.16;;;8.00;79.09
83492;BME280;73661;56.120;12.302;2023-12-29T06:15:03;99353.44;;;7.87;79.60
83492;BME280;73661;56.120;12.302;2023-12-29T06:17:29;99346.31;;;8.22;78.85
83492;BME280;73661;56.120;12.302;2023-12-29T06:19:54;99348.09;;;8.13;78.08
83492;BME280;73661;56.120;12.302;2023-12-29T06:22:20;99343.03;;;7.87;78.89
83492;BME280;73661;56.120;12.302;2023-12-29T06:24:46;99347.34;;;7.91;78.23
83492;BME280;73661;56.120;12.302;2023-12-29T06:27:12;99355.22;;;7.73;78.83
83492;BME280;73661;56.120;12.302;2023-12-29T06:29:37;99362.97;;;7.81;78.56
83492;BME280;73661;56.120;12.302;2023-12-29T06:32:04;99354.34;;;7.77;78.46
83492;BME280;73661;56.120;12.302;2023-12-29T06:34:30;99346.66;;;7.53;78.02
83492;BME280;73661;56.120;12.302;2023-12-29T06:36:55;99355.25;;;7.72;77.85
83492;BME280;73661;56.120;12.302;2023-12-29T06:39:21;99344.06;;;7.42;78.00
83492;BME280;73661;56.120;12.302;2023-12-29T06:41:48;99354.41;;;7.63;77.71
83492;BME280;73661;56.120;12.302;2023-12-29T06:44:13;99337.19;;;7.33;77.94
83492;BME280;73661;56.120;12.302;2023-12-29T06:46:40;99342.34;;;7.46;77.28
83492;BME280;73661;56.120;12.302;2023-12-29T06:49:09;99336.25;;;7.59;76.66
83492;BME280;73661;56.120;12.302;2023-12-29T06:51:35;99339.69;;;7.65;76.58
83492;BME280;73661;56.120;12.302;2023-12-29T06:54:07;99338.00;;;7.51;76.66
83492;BME280;73661;56.120;12.302;2023-12-29T06:56:32;99341.38;;;7.76;76.14
83492;BME280;73661;56.120;12.302;2023-12-29T06:58:58;99338.59;;;8.08;75.02
83492;BME280;73661;56.120;12.302;2023-12-29T07:01:24;99346.53;;;7.80;75.66
83492;BME280;73661;56.120;12.302;2023-12-29T07:03:50;99360.31;;;7.95;75.34
83492;BME280;73661;56.120;12.302;2023-12-29T07:06:16;99350.72;;;8.09;75.07
83492;BME280;73661;56.120;12.302;2023-12-29T07:08:42;99356.91;;;7.86;76.42
83492;BME280;73661;56.120;12.302;2023-12-29T07:11:11;99360.34;;;7.87;76.78
83492;BME280;73661;56.120;12.302;2023-12-29T07:13:37;99355.28;;;7.58;77.15
83492;BME280;73661;56.120;12.302;2023-12-29T07:16:04;99355.28;;;7.53;77.01
83492;BME280;73661;56.120;12.302;2023-12-29T07:18:30;99359.56;;;7.68;76.80
83492;BME280;73661;56.120;12.302;2023-12-29T07:20:56;99359.66;;;7.39;77.95
83492;BME280;73661;56.120;12.302;2023-12-29T07:23:21;99364.81;;;7.53;76.77
83492;BME280;73661;56.120;12.302;2023-12-29T07:25:48;99365.69;;;7.52;77.39
83492;BME280;73661;56.120;12.302;2023-12-29T07:28:14;99363.91;;;7.61;76.42
83492;BME280;73661;56.120;12.302;2023-12-29T07:30:40;99375.19;;;7.54;76.87
83492;BME280;73661;56.120;12.302;2023-12-29T07:33:05;99363.84;;;7.83;76.18
83492;BME280;73661;56.120;12.302;2023-12-29T07:35:31;99365.69;;;7.49;76.86
83492;BME280;73661;56.120;12.302;2023-12-29T07:37:57;99369.19;;;7.45;76.78
83492;BME280;73661;56.120;12.302;2023-12-29T07:40:23;99360.47;;;7.61;76.10
83492;BME280;73661;56.120;12.302;2023-12-29T07:42:49;99364.75;;;7.73;75.58
83492;BME280;73661;56.120;12.302;2023-12-29T07:45:16;99369.97;;;7.71;76.11
83492;BME280;73661;56.120;12.302;2023-12-29T07:47:43;99371.66;;;7.80;75.37
83492;BME280;73661;56.120;12.302;2023-12-29T07:50:09;99381.09;;;7.95;74.76
83492;BME280;73661;56.120;12.302;2023-12-29T07:52:35;99372.44;;;7.96;74.79
83492;BME280;73661;56.120;12.302;2023-12-29T07:55:00;99375.13;;;7.77;75.00
83492;BME280;73661;56.120;12.302;2023-12-29T07:57:26;99376.03;;;7.70;75.47
83492;BME280;73661;56.120;12.302;2023-12-29T07:59:52;99380.31;;;7.79;74.62
83492;BME280;73661;56.120;12.302;2023-12-29T08:02:18;99377.59;;;8.02;74.33
83492;BME280;73661;56.120;12.302;2023-12-29T08:04:43;99370.66;;;8.10;73.92
83492;BME280;73661;56.120;12.302;2023-12-29T08:07:12;99375.94;;;7.96;74.39
83492;BME280;73661;56.120;12.302;2023-12-29T08:09:37;99365.69;;;7.58;76.21
83492;BME280;73661;56.120;12.302;2023-12-29T08:12:03;99373.19;;;8.20;75.44
83492;BME280;73661;56.120;12.302;2023-12-29T08:14:29;99375.75;;;8.22;74.62
83492;BME280;73661;56.120;12.302;2023-12-29T08:16:55;99375.06;;;7.91;75.71
83492;BME280;73661;56.120;12.302;2023-12-29T08:19:22;99387.22;;;7.86;75.83
83492;BME280;73661;56.120;12.302;2023-12-29T08:21:48;99380.28;;;7.86;76.73
83492;BME280;73661;56.120;12.302;2023-12-29T08:24:14;99377.72;;;7.74;76.84
83492;BME280;73661;56.120;12.302;2023-12-29T08:26:47;99370.59;;;8.19;75.31
83492;BME280;73661;56.120;12.302;2023-12-29T08:29:14;99377.44;;;8.35;74.82
83492;BME280;73661;56.120;12.302;2023-12-29T08:31:40;99377.50;;;8.20;74.77
83492;BME280;73661;56.120;12.302;2023-12-29T08:34:06;99380.03;;;8.40;75.13
83492;BME280;73661;56.120;12.302;2023-12-29T08:36:32;99386.97;;;8.33;75.05
83492;BME280;73661;56.120;12.302;2023-12-29T08:38:57;99382.72;;;8.18;75.10
83492;BME280;73661;56.120;12.302;2023-12-29T08:41:24;99397.59;;;7.90;76.72
83492;BME280;73661;56.120;12.302;2023-12-29T08:43:49;99385.53;;;7.68;77.80
83492;BME280;73661;56.120;12.302;2023-12-29T08:46:15;99388.09;;;7.80;77.29
83492;BME280;73661;56.120;12.302;2023-12-29T08:48:41;99394.97;;;7.97;77.23
83492;BME280;73661;56.120;12.302;2023-12-29T08:51:06;99391.53;;;7.91;76.87
83492;BME280;73661;56.120;12.302;2023-12-29T08:53:32;99393.28;;;7.86;77.22
83492;BME280;73661;56.120;12.302;2023-12-29T08:56:01;99391.47;;;8.01;76.16
83492;BME280;73661;56.120;12.302;2023-12-29T08:58:27;99396.66;;;8.10;76.29
83492;BME280;73661;56.120;12.302;2023-12-29T09:00:53;99397.47;;;8.16;75.94
83492;BME280;73661;56.120;12.302;2023-12-29T09:03:19;99400.81;;;8.34;75.79
83492;BME280;73661;56.120;12.302;2023-12-29T09:05:45;99402.56;;;8.35;75.76
83492;BME280;73661;56.120;12.302;2023-12-29T09:08:11;99395.75;;;8.14;75.94
83492;BME280;73661;56.120;12.302;2023-12-29T09:10:37;99394.06;;;8.05;76.72
83492;BME280;73661;56.120;12.302;2023-12-29T09:13:02;99408.81;;;7.96;76.60
83492;BME280;73661;56.120;12.302;2023-12-29T09:15:28;99414.84;;;8.07;76.66
83492;BME280;73661;56.120;12.302;2023-12-29T09:17:54;99418.34;;;8.03;76.71
83492;BME280;73661;56.120;12.302;2023-12-29T09:20:20;99411.38;;;8.06;76.65
83492;BME280;73661;56.120;12.302;2023-12-29T09:22:45;99420.00;;;8.16;77.02
83492;BME280;73661;56.120;12.302;2023-12-29T09:25:11;99420.94;;;8.03;77.37
83492;BME280;73661;56.120;12.302;2023-12-29T09:27:37;99422.69;;;7.93;77.74
83492;BME280;73661;56.120;12.302;2023-12-29T09:30:04;99423.53;;;8.00;77.84
83492;BME280;73661;56.120;12.302;2023-12-29T09:32:30;99430.50;;;7.87;78.19
83492;BME280;73661;56.120;12.302;2023-12-29T09:34:56;99424.38;;;8.05;77.94
83492;BME280;73661;56.120;12.302;2023-12-29T09:37:22;99427.03;;;7.82;78.67
83492;BME280;73661;56.120;12.302;2023-12-29T09:39:48;99427.94;;;7.79;78.81
83492;BME280;73661;56.120;12.302;2023-12-29T09:42:28;99407.97;;;7.90;78.62
83492;BME280;73661;56.120;12.302;2023-12-29T09:44:55;99411.38;;;8.09;78.18
83492;BME280;73661;56.120;12.302;2023-12-29T09:47:24;99417.56;;;7.76;78.77
83492;BME280;73661;56.120;12.302;2023-12-29T09:49:53;99413.16;;;7.92;78.52
83492;BME280;73661;56.120;12.302;2023-12-29T09:52:20;99419.19;;;7.99;78.63
83492;BME280;73661;56.120;12.302;2023-12-29T09:54:51;99422.69;;;7.88;78.80
83492;BME280;73661;56.120;12.302;2023-12-29T09:57:18;99435.63;;;8.07;78.59
83492;BME280;73661;56.120;12.302;2023-12-29T09:59:44;99442.56;;;8.00;78.52
83492;BME280;73661;56.120;12.302;2023-12-29T10:02:17;99444.25;;;8.16;78.72
83492;BME280;73661;56.120;12.302;2023-12-29T10:04:43;99429.44;;;8.35;76.45
83492;BME280;73661;56.120;12.302;2023-12-29T10:07:15;99434.66;;;8.38;77.25
83492;BME280;73661;56.120;12.302;2023-12-29T10:09:45;99424.38;;;8.05;78.11
83492;BME280;73661;56.120;12.302;2023-12-29T10:12:12;99431.31;;;8.06;77.83
83492;BME280;73661;56.120;12.302;2023-12-29T10:14:55;99422.63;;;8.10;77.88
83492;BME280;73661;56.120;12.302;2023-12-29T10:17:51;99423.53;;;7.93;77.83
83492;BME280;73661;56.120;12.302;2023-12-29T10:23:11;99420.88;;;8.09;77.66
83492;BME280;73661;56.120;12.302;2023-12-29T10:25:39;99415.72;;;8.04;77.62
83492;BME280;73661;56.120;12.302;2023-12-29T10:28:06;99420.81;;;8.24;77.31
83492;BME280;73661;56.120;12.302;2023-12-29T10:30:32;99418.28;;;8.12;77.39
83492;BME280;73661;56.120;12.302;2023-12-29T10:32:58;99422.66;;;8.04;77.61
83492;BME280;73661;56.120;12.302;2023-12-29T10:35:26;99429.63;;;7.92;77.39
83492;BME280;73661;56.120;12.302;2023-12-29T10:37:52;99424.25;;;8.32;77.05
83492;BME280;73661;56.120;12.302;2023-12-29T10:40:19;99415.63;;;8.26;76.63
83492;BME280;73661;56.120;12.302;2023-12-29T10:42:57;99417.28;;;8.40;76.54
83492;BME280;73661;56.120;12.302;2023-12-29T10:45:31;99419.06;;;8.29;76.20
83492;BME280;73661;56.120;12.302;2023-12-29T10:47:59;99419.91;;;8.31;76.40
83492;BME280;73661;56.120;12.302;2023-12-29T10:50:25;99415.59;;;8.38;75.45
83492;BME280;73661;56.120;12.302;2023-12-29T10:53:11;99415.63;;;8.21;75.90
83492;BME280;73661;56.120;12.302;2023-12-29T10:55:38;99408.56;;;8.51;75.25
83492;BME280;73661;56.120;12.302;2023-12-29T10:58:05;99409.50;;;8.40;75.05
83492;BME280;73661;56.120;12.302;2023-12-29T11:00:31;99421.66;;;8.35;75.23
83492;BME280;73661;56.120;12.302;2023-12-29T11:02:58;99419.00;;;8.41;74.88
83492;BME280;73661;56.120;12.302;2023-12-29T11:05:26;99426.84;;;8.32;74.98
83492;BME280;73661;56.120;12.302;2023-12-29T11:07:54;99428.53;;;8.42;74.95
83492;BME280;73661;56.120;12.302;2023-12-29T11:10:23;99430.28;;;8.40;74.33
83492;BME280;73661;56.120;12.302;2023-12-29T11:12:49;99422.50;;;8.43;73.57
83492;BME280;73661;56.120;12.302;2023-12-29T11:15:16;99431.25;;;8.23;73.41
83492;BME280;73661;56.120;12.302;2023-12-29T11:17:43;99412.09;;;8.34;74.00
83492;BME280;73661;56.120;12.302;2023-12-29T11:20:16;99409.56;;;8.20;73.55
83492;BME280;73661;56.120;12.302;2023-12-29T11:22:43;99414.78;;;8.17;73.48
83492;BME280;73661;56.120;12.302;2023-12-29T11:25:11;99401.78;;;8.24;72.61
83492;BME280;73661;56.120;12.302;2023-12-29T11:27:37;99405.25;;;8.18;72.68
83492;BME280;73661;56.120;12.302;2023-12-29T11:30:04;99408.78;;;8.06;72.46
83492;BME280;73661;56.120;12.302;2023-12-29T11:38:40;99409.69;;;7.98;73.08
83492;BME280;73661;56.120;12.302;2023-12-29T11:43:57;99392.34;;;7.98;72.67
83492;BME280;73661;56.120;12.302;2023-12-29T11:46:37;99388.72;;;8.37;72.72
83492;BME280;73661;56.120;12.302;2023-12-29T11:49:03;99403.56;;;8.11;72.87
83492;BME280;73661;56.120;12.302;2023-12-29T11:51:30;99396.66;;;8.04;73.10
83492;BME280;73661;56.120;12.302;2023-12-29T11:53:56;99393.19;;;8.09;72.92
83492;BME280;73661;56.120;12.302;2023-12-29T11:56:22;99398.41;;;7.99;72.85
83492;BME280;73661;56.120;12.302;2023-12-29T11:58:48;99395.75;;;8.12;73.33
83492;BME280;73661;56.120;12.302;2023-12-29T12:01:33;99403.53;;;8.14;73.29
83492;BME280;73661;56.120;12.302;2023-12-29T12:04:01;99406.19;;;8.02;73.88
83492;BME280;73661;56.120;12.302;2023-12-29T12:06:39;99396.63;;;8.07;73.68
83492;BME280;73661;56.120;12.302;2023-12-29T12:09:24;99398.28;;;8.26;74.52
83492;BME280;73661;56.120;12.302;2023-12-29T12:11:53;99398.94;;;8.62;73.23
83492;BME280;73661;56.120;12.302;2023-12-29T12:14:50;99395.69;;;8.26;73.92
83492;BME280;73661;56.120;12.302;2023-12-29T12:17:33;99398.34;;;8.17;74.73
83492;BME280;73661;56.120;12.302;2023-12-29T12:22:31;99402.66;;;8.23;74.16
83492;BME280;73661;56.120;12.302;2023-12-29T12:24:58;99390.44;;;8.32;73.39
83492;BME280;73661;56.120;12.302;2023-12-29T12:27:28;99393.06;;;8.31;73.38
83492;BME280;73661;56.120;12.302;2023-12-29T12:29:54;99386.94;;;8.44;73.63
83492;BME280;73661;56.120;12.302;2023-12-29T12:32:23;99399.94;;;8.42;73.89
83492;BME280;73661;56.120;12.302;2023-12-29T12:34:49;99393.00;;;8.41;73.17
83492;BME280;73661;56.120;12.302;2023-12-29T12:37:26;99398.16;;;8.51;73.32
83492;BME280;73661;56.120;12.302;2023-12-29T12:39:53;99396.44;;;8.46;74.17
83492;BME280;73661;56.120;12.302;2023-12-29T12:42:19;99402.63;;;8.24;74.45
83492;BME280;73661;56.120;12.302;2023-12-29T12:44:56;99397.31;;;8.50;73.44
83492;BME280;73661;56.120;12.302;2023-12-29T12:47:44;99403.44;;;8.32;73.39
83492;BME280;73661;56.120;12.302;2023-12-29T12:50:12;99386.06;;;8.42;74.53
83492;BME280;73661;56.120;12.302;2023-12-29T12:52:39;99392.06;;;8.53;73.78
83492;BME280;73661;56.120;12.302;2023-12-29T12:55:09;99391.28;;;8.34;74.15
83492;BME280;73661;56.120;12.302;2023-12-29T12:57:37;99388.66;;;8.46;74.74
83492;BME280;73661;56.120;12.302;2023-12-29T13:00:03;99380.03;;;8.34;74.63
83492;BME280;73661;56.120;12.302;2023-12-29T13:02:31;99380.03;;;8.40;74.98
83492;BME280;73661;56.120;12.302;2023-12-29T13:04:59;99381.72;;;8.42;73.27
83492;BME280;73661;56.120;12.302;2023-12-29T13:07:25;99373.81;;;8.61;73.38
83492;BME280;73661;56.120;12.302;2023-12-29T13:09:52;99379.00;;;8.61;74.14
83492;BME280;73661;56.120;12.302;2023-12-29T13:12:18;99367.06;;;8.31;73.78
83492;BME280;73661;56.120;12.302;2023-12-29T13:14:45;99378.44;;;8.10;73.63
83492;BME280;73661;56.120;12.302;2023-12-29T13:17:14;99367.16;;;8.14;73.58